Time;durP1;ratioP1;P1;durP2;ratioP2;P2;SDS_P1;SDS_P2;PMS_P1;PMS_P2;Temp;Humidity;BMP_temperature;BMP_pressure;BME280_temperature;BME280_humidity;BME280_pressure;Samples;Min_cycle;Max_cycle;Signal;HPM_P1;HPM_P2
2023/09/07 00:01:52;;;;;;;970.13;866.20;;;18.40;75.90;;;;;;5052047;28;20463;-68
2023/09/07 00:04:22;;;;;;;931.10;842.97;;;18.40;76.00;;;;;;5049207;28;20105;-67
2023/09/07 00:06:49;;;;;;;980.03;878.40;;;18.40;76.00;;;;;;5038322;28;20560;-66
2023/09/07 00:09:18;;;;;;;994.72;884.53;;;18.30;75.90;;;;;;5050616;28;20044;-68
2023/09/07 00:11:45;;;;;;;1028.53;908.45;;;18.30;76.00;;;;;;5049456;28;20547;-68
2023/09/07 00:14:11;;;;;;;958.33;857.15;;;18.30;75.90;;;;;;5050228;28;20036;-68
2023/09/07 00:16:38;;;;;;;976.05;875.33;;;18.30;75.90;;;;;;5039849;28;20053;-68
2023/09/07 00:19:04;;;;;;;1003.95;866.05;;;18.30;76.00;;;;;;5049916;28;20114;-68
2023/09/07 00:21:30;;;;;;;974.70;870.10;;;18.20;76.00;;;;;;5050394;28;20380;-68
2023/09/07 00:23:56;;;;;;;1001.28;895.65;;;18.20;76.00;;;;;;5057735;28;20059;-65
2023/09/07 00:26:22;;;;;;;987.95;862.88;;;18.20;76.00;;;;;;5038210;28;20581;-68
2023/09/07 00:28:48;;;;;;;946.75;856.72;;;18.20;76.00;;;;;;5046882;28;20098;-68
2023/09/07 00:31:13;;;;;;;961.47;866.20;;;18.10;76.00;;;;;;5049888;28;20361;-68
2023/09/07 00:33:39;;;;;;;979.88;874.10;;;18.10;76.00;;;;;;5049187;28;20045;-68
2023/09/07 00:36:05;;;;;;;1011.97;874.47;;;18.10;76.10;;;;;;5042951;28;20041;-64
2023/09/07 00:38:31;;;;;;;953.88;855.35;;;18.10;76.20;;;;;;5045710;28;20070;-68
2023/09/07 00:40:57;;;;;;;992.88;884.50;;;18.00;76.20;;;;;;5050696;28;20479;-68
2023/09/07 00:43:22;;;;;;;1028.85;885.97;;;18.00;76.30;;;;;;5031513;28;20135;-68
2023/09/07 00:45:49;;;;;;;1000.72;883.40;;;18.00;76.50;;;;;;5032389;28;20040;-68
2023/09/07 00:48:16;;;;;;;1047.93;868.90;;;18.00;76.50;;;;;;5020893;28;20049;-67
2023/09/07 00:50:42;;;;;;;988.88;867.95;;;17.90;76.50;;;;;;5049374;28;20283;-67
2023/09/07 00:53:10;;;;;;;990.30;867.20;;;17.90;76.60;;;;;;5048329;28;20040;-68
2023/09/07 00:55:36;;;;;;;948.90;848.75;;;17.80;76.60;;;;;;5049716;28;20134;-68
2023/09/07 00:58:04;;;;;;;973.85;869.17;;;17.80;76.80;;;;;;5037043;28;20072;-68
2023/09/07 01:00:30;;;;;;;927.78;831.08;;;17.80;77.00;;;;;;5048277;28;20377;-67
2023/09/07 01:02:56;;;;;;;1025.10;859.85;;;17.80;76.90;;;;;;5048503;28;20047;-68
2023/09/07 01:05:29;;;;;;;980.70;867.58;;;17.80;76.90;;;;;;5050872;28;20052;-68
2023/09/07 01:08:18;;;;;;;983.92;867.42;;;17.70;76.80;;;;;;5021010;28;20040;-67
2023/09/07 01:10:44;;;;;;;959.65;858.50;;;17.70;76.80;;;;;;5050808;28;20056;-68
2023/09/07 01:13:09;;;;;;;975.22;869.33;;;17.60;76.70;;;;;;5049476;28;20365;-68
2023/09/07 01:15:37;;;;;;;959.85;854.25;;;17.60;76.80;;;;;;5050828;28;20488;-65
2023/09/07 01:18:03;;;;;;;1030.15;857.30;;;17.60;76.70;;;;;;5039134;28;20090;-65
2023/09/07 01:20:32;;;;;;;971.03;855.95;;;17.60;76.70;;;;;;5032584;28;20051;-68
2023/09/07 01:22:58;;;;;;;952.90;851.15;;;17.60;76.70;;;;;;5050336;28;20040;-68
2023/09/07 01:25:24;;;;;;;940.40;836.70;;;17.50;76.80;;;;;;5032260;28;20033;-66
2023/09/07 01:27:50;;;;;;;950.05;850.72;;;17.50;76.90;;;;;;5035917;28;20045;-67
2023/09/07 01:30:16;;;;;;;864.55;785.10;;;17.50;77.00;;;;;;5048907;28;20049;-68
2023/09/07 01:32:42;;;;;;;912.90;817.45;;;17.50;77.00;;;;;;5049579;28;20048;-68
2023/09/07 01:35:11;;;;;;;954.70;850.28;;;17.40;77.20;;;;;;5051022;28;20387;-68
2023/09/07 01:37:36;;;;;;;940.00;840.30;;;17.40;77.40;;;;;;5038880;28;20589;-67
2023/09/07 01:40:07;;;;;;;925.92;830.70;;;17.40;77.40;;;;;;5049529;28;20496;-68
2023/09/07 01:42:33;;;;;;;927.45;832.47;;;17.40;77.50;;;;;;5045697;28;20049;-69
2023/09/07 01:44:59;;;;;;;895.78;809.85;;;17.30;77.60;;;;;;5050561;28;20043;-68
2023/09/07 01:47:24;;;;;;;911.47;817.72;;;17.40;77.70;;;;;;5038376;28;20048;-68
2023/09/07 01:49:50;;;;;;;881.10;793.25;;;17.40;77.70;;;;;;5049791;28;20483;-68
2023/09/07 01:52:16;;;;;;;875.42;789.70;;;17.40;77.80;;;;;;5048727;28;20048;-68
2023/09/07 01:54:41;;;;;;;930.08;837.10;;;17.40;77.90;;;;;;5032227;28;20044;-67
2023/09/07 01:57:07;;;;;;;882.95;795.90;;;17.40;77.80;;;;;;5038205;28;20376;-67
2023/09/07 01:59:33;;;;;;;887.42;799.20;;;17.40;77.90;;;;;;5029247;28;20037;-67
2023/09/07 02:01:58;;;;;;;878.80;790.67;;;17.40;77.90;;;;;;5049786;28;20041;-67
2023/09/07 02:04:24;;;;;;;872.28;785.85;;;17.40;77.90;;;;;;5049078;28;20045;-68
2023/09/07 02:06:50;;;;;;;874.75;789.22;;;17.40;77.90;;;;;;5038405;28;20383;-68
2023/09/07 02:09:15;;;;;;;883.78;795.90;;;17.40;77.90;;;;;;5049691;28;20091;-68
2023/09/07 02:11:41;;;;;;;888.97;802.55;;;17.30;77.90;;;;;;5031747;28;20072;-66
2023/09/07 02:14:07;;;;;;;932.00;831.83;;;17.30;77.90;;;;;;5031577;28;20045;-67
2023/09/07 02:16:32;;;;;;;900.67;809.35;;;17.30;77.90;;;;;;5038178;28;20368;-67
2023/09/07 02:19:06;;;;;;;935.55;838.60;;;17.30;77.90;;;;;;5048392;28;20041;-67
2023/09/07 02:21:32;;;;;;;909.05;818.20;;;17.20;77.90;;;;;;5049269;28;20041;-67
2023/09/07 02:23:58;;;;;;;858.45;777.95;;;17.20;77.90;;;;;;5047346;28;20090;-67
2023/09/07 02:26:24;;;;;;;895.45;806.53;;;17.20;77.80;;;;;;5037576;28;20876;-68
2023/09/07 02:28:50;;;;;;;911.25;820.80;;;17.20;77.90;;;;;;5047858;28;20052;-67
2023/09/07 02:31:15;;;;;;;910.65;815.70;;;17.20;77.90;;;;;;5048738;28;20574;-68
2023/09/07 02:33:41;;;;;;;872.58;786.10;;;17.20;77.90;;;;;;5030434;28;20072;-67
2023/09/07 02:36:07;;;;;;;962.78;857.88;;;17.10;77.90;;;;;;5041577;28;20047;-67
2023/09/07 02:38:32;;;;;;;908.42;816.88;;;17.10;77.90;;;;;;5045242;28;20045;-68
2023/09/07 02:40:58;;;;;;;900.88;812.75;;;17.00;77.90;;;;;;5048564;28;20120;-67
2023/09/07 02:43:24;;;;;;;879.20;792.15;;;17.00;78.10;;;;;;5047581;28;20084;-68
2023/09/07 02:45:50;;;;;;;893.90;802.60;;;17.00;78.10;;;;;;5048550;28;20041;-68
2023/09/07 02:48:16;;;;;;;894.63;805.97;;;17.00;78.10;;;;;;5036779;28;20068;-68
2023/09/07 02:50:42;;;;;;;917.10;823.28;;;17.10;78.10;;;;;;5049194;28;20367;-68
2023/09/07 02:53:08;;;;;;;860.38;774.95;;;17.00;78.00;;;;;;5047412;28;20484;-68
2023/09/07 02:55:34;;;;;;;819.33;740.50;;;17.00;78.00;;;;;;5029345;28;20048;-68
2023/09/07 02:58:03;;;;;;;902.30;809.55;;;17.00;78.00;;;;;;5036875;28;20037;-68
2023/09/07 03:00:28;;;;;;;882.95;796.65;;;16.90;78.10;;;;;;5048675;28;20079;-68
2023/09/07 03:02:54;;;;;;;871.55;787.92;;;16.80;78.10;;;;;;5048127;28;20045;-68
2023/09/07 03:05:20;;;;;;;899.90;810.67;;;16.80;78.20;;;;;;5048838;28;20049;-68
2023/09/07 03:07:49;;;;;;;902.42;806.55;;;16.80;78.20;;;;;;5036564;28;20076;-67
2023/09/07 03:10:15;;;;;;;862.38;777.17;;;16.80;78.30;;;;;;5030695;28;20419;-68
2023/09/07 03:12:41;;;;;;;934.15;833.13;;;16.80;78.30;;;;;;5030424;28;20053;-68
2023/09/07 03:15:07;;;;;;;883.28;795.17;;;16.80;78.30;;;;;;5048696;28;20079;-68
2023/09/07 03:17:33;;;;;;;917.97;827.50;;;16.70;78.20;;;;;;5037023;28;20048;-68
2023/09/07 03:19:59;;;;;;;885.35;795.28;;;16.70;78.20;;;;;;5048152;28;20048;-68
2023/09/07 03:22:25;;;;;;;903.05;809.30;;;16.60;78.30;;;;;;5051358;28;20044;-68
2023/09/07 03:24:51;;;;;;;854.45;774.25;;;16.60;78.40;;;;;;5050912;28;20076;-68
2023/09/07 03:27:16;;;;;;;877.42;791.17;;;16.60;78.40;;;;;;5035449;28;20053;-68
2023/09/07 03:29:44;;;;;;;891.28;800.05;;;16.60;78.50;;;;;;5044978;28;20111;-67
2023/09/07 03:32:10;;;;;;;881.17;795.08;;;16.50;78.50;;;;;;5048077;28;20059;-68
2023/09/07 03:34:36;;;;;;;891.80;804.50;;;16.50;78.50;;;;;;5047360;28;20529;-67
2023/09/07 03:37:02;;;;;;;901.58;809.45;;;16.50;78.60;;;;;;5037598;28;20036;-69
2023/09/07 03:39:28;;;;;;;875.05;791.33;;;16.50;78.70;;;;;;5047880;28;20037;-68
2023/09/07 03:41:54;;;;;;;863.65;780.22;;;16.50;78.70;;;;;;5030483;28;20414;-68
2023/09/07 03:44:19;;;;;;;865.40;782.50;;;16.50;78.70;;;;;;5047466;28;20036;-67
2023/09/07 03:46:45;;;;;;;885.80;796.22;;;16.40;78.70;;;;;;5036472;28;20095;-66
2023/09/07 03:49:11;;;;;;;900.85;807.85;;;16.40;78.70;;;;;;5047486;28;20175;-68
2023/09/07 03:51:37;;;;;;;866.00;781.88;;;16.40;78.80;;;;;;5048454;28;20037;-68
2023/09/07 03:54:03;;;;;;;890.53;804.40;;;16.40;78.90;;;;;;5050975;28;20092;-68
2023/09/07 03:56:29;;;;;;;872.17;786.55;;;16.40;79.00;;;;;;5022886;28;20072;-68
2023/09/07 03:58:55;;;;;;;865.80;778.60;;;16.40;79.00;;;;;;5041898;28;20040;-68
2023/09/07 04:01:20;;;;;;;856.45;773.85;;;16.40;78.90;;;;;;5051598;28;20032;-68
2023/09/07 04:03:46;;;;;;;856.10;775.85;;;16.30;78.90;;;;;;5036041;28;20064;-68
2023/09/07 04:06:12;;;;;;;869.33;780.92;;;16.20;79.00;;;;;;5042386;28;20454;-68
2023/09/07 04:08:38;;;;;;;853.95;773.33;;;16.20;79.00;;;;;;5050262;28;20052;-66
2023/09/07 04:11:06;;;;;;;842.85;763.05;;;16.10;79.00;;;;;;5034132;28;20037;-67
2023/09/07 04:13:32;;;;;;;809.45;731.90;;;16.10;79.10;;;;;;5050304;28;20096;-68
2023/09/07 04:15:58;;;;;;;913.42;819.65;;;16.20;79.10;;;;;;5051890;28;20440;-67
2023/09/07 04:18:24;;;;;;;856.53;772.42;;;16.10;79.10;;;;;;5039386;28;20122;-69
2023/09/07 04:20:49;;;;;;;839.95;757.42;;;16.10;79.00;;;;;;5051313;28;20484;-68
2023/09/07 04:23:15;;;;;;;921.70;825.47;;;16.10;79.00;;;;;;5049459;28;20464;-67
2023/09/07 04:25:41;;;;;;;856.03;774.38;;;16.10;79.10;;;;;;5051017;28;20037;-67
2023/09/07 04:28:07;;;;;;;910.63;814.60;;;16.00;79.10;;;;;;5035682;28;20090;-68
2023/09/07 04:30:41;;;;;;;858.28;776.47;;;16.00;79.20;;;;;;5051267;28;20041;-68
2023/09/07 04:33:07;;;;;;;846.05;765.25;;;16.00;79.30;;;;;;5032529;28;20037;-68
2023/09/07 04:35:33;;;;;;;848.83;764.85;;;16.00;79.30;;;;;;5051051;28;20041;-65
2023/09/07 04:37:59;;;;;;;851.28;766.40;;;16.00;79.20;;;;;;5022367;28;20045;-67
2023/09/07 04:40:25;;;;;;;844.47;760.33;;;16.00;79.20;;;;;;5050205;28;20063;-67
2023/09/07 04:42:51;;;;;;;881.92;790.13;;;16.00;79.20;;;;;;5050335;28;20051;-67
2023/09/07 04:45:17;;;;;;;826.92;746.63;;;15.90;79.30;;;;;;5050600;28;20044;-68
2023/09/07 04:47:43;;;;;;;879.25;788.22;;;15.90;79.40;;;;;;5039144;28;20063;-68
2023/09/07 04:50:09;;;;;;;853.40;767.83;;;15.80;79.40;;;;;;5050351;28;20144;-67
2023/09/07 04:52:35;;;;;;;820.78;742.55;;;15.80;79.40;;;;;;5044064;28;20515;-68
2023/09/07 04:55:01;;;;;;;840.20;758.47;;;15.80;79.50;;;;;;5050378;28;20041;-67
2023/09/07 04:57:27;;;;;;;873.25;786.85;;;15.80;79.50;;;;;;5039155;28;20068;-68
2023/09/07 04:59:53;;;;;;;862.15;773.63;;;15.80;79.60;;;;;;5050071;28;20542;-68
2023/09/07 05:02:18;;;;;;;868.33;783.67;;;15.80;79.60;;;;;;5050193;28;20049;-68
2023/09/07 05:04:44;;;;;;;873.78;785.53;;;15.80;79.60;;;;;;5032574;28;20369;-67
2023/09/07 05:07:10;;;;;;;865.88;777.78;;;15.80;79.60;;;;;;5020966;28;20647;-67
2023/09/07 05:09:36;;;;;;;905.55;813.42;;;15.80;79.60;;;;;;5050384;28;20406;-67
2023/09/07 05:12:02;;;;;;;868.72;781.85;;;15.80;79.60;;;;;;5051004;28;20051;-67
2023/09/07 05:14:29;;;;;;;848.40;763.80;;;15.80;79.60;;;;;;5050424;28;20076;-67
2023/09/07 05:16:56;;;;;;;848.83;763.97;;;15.80;79.70;;;;;;5021240;28;20482;-68
2023/09/07 05:19:22;;;;;;;891.28;800.00;;;15.80;79.60;;;;;;5031652;28;20055;-68
2023/09/07 05:21:48;;;;;;;860.17;776.13;;;15.80;79.60;;;;;;5050102;28;20080;-66
2023/09/07 05:24:15;;;;;;;822.85;740.15;;;15.80;79.60;;;;;;5049365;28;20068;-67
2023/09/07 05:26:42;;;;;;;831.70;749.60;;;15.80;79.60;;;;;;5031356;28;20035;-68
2023/09/07 05:29:08;;;;;;;885.55;799.60;;;15.80;79.60;;;;;;5047606;28;20044;-68
2023/09/07 05:31:33;;;;;;;865.38;779.50;;;15.80;79.60;;;;;;5047862;28;20037;-68
2023/09/07 05:34:00;;;;;;;868.00;780.97;;;15.80;79.60;;;;;;5049135;28;20041;-67
2023/09/07 05:36:27;;;;;;;867.47;780.05;;;15.80;79.60;;;;;;5021143;28;20282;-68
2023/09/07 05:38:52;;;;;;;848.85;764.83;;;15.80;79.60;;;;;;5049590;28;20123;-67
2023/09/07 05:41:18;;;;;;;880.78;792.10;;;16.00;79.60;;;;;;5049198;28;20120;-68
2023/09/07 05:43:44;;;;;;;846.47;763.13;;;16.00;79.60;;;;;;5055592;28;20058;-67
2023/09/07 05:46:09;;;;;;;846.83;760.63;;;16.00;79.60;;;;;;5039942;28;20047;-68
2023/09/07 05:48:35;;;;;;;860.80;773.90;;;16.00;79.50;;;;;;5047306;28;20120;-68
2023/09/07 05:51:01;;;;;;;853.90;767.55;;;16.10;79.50;;;;;;5032362;28;20589;-68
2023/09/07 05:53:27;;;;;;;851.65;766.17;;;16.10;79.50;;;;;;5048139;28;20052;-68
2023/09/07 05:55:52;;;;;;;882.80;795.38;;;16.20;79.50;;;;;;5046945;28;20045;-67
2023/09/07 05:58:19;;;;;;;955.53;844.25;;;16.30;79.50;;;;;;5018324;28;20068;-68
2023/09/07 06:00:44;;;;;;;877.65;788.60;;;16.40;79.50;;;;;;5029925;28;20049;-66
2023/09/07 06:03:11;;;;;;;877.65;789.10;;;16.50;79.40;;;;;;5030849;28;20040;-67
2023/09/07 06:05:38;;;;;;;888.22;798.95;;;16.60;79.30;;;;;;5055703;28;20410;-67
2023/09/07 06:08:06;;;;;;;876.65;789.70;;;16.70;79.20;;;;;;5046021;28;20395;-68
2023/09/07 06:10:32;;;;;;;909.42;813.58;;;16.90;79.10;;;;;;5056050;28;20407;-67
2023/09/07 06:12:58;;;;;;;877.55;787.75;;;17.00;78.90;;;;;;5050592;28;20040;-68
2023/09/07 06:15:24;;;;;;;895.80;804.88;;;17.20;78.60;;;;;;5047452;28;20068;-67
2023/09/07 06:17:49;;;;;;;917.35;818.97;;;17.40;78.40;;;;;;5041830;28;20047;-68
2023/09/07 06:20:17;;;;;;;872.53;783.65;;;17.50;78.20;;;;;;5042718;28;20045;-65
2023/09/07 06:22:45;;;;;;;930.97;831.95;;;17.60;78.00;;;;;;5040307;28;20049;-67
2023/09/07 06:25:10;;;;;;;876.80;783.35;;;17.80;77.90;;;;;;5010207;28;20555;-67
2023/09/07 06:27:36;;;;;;;912.08;818.30;;;17.90;77.90;;;;;;5007223;28;20069;-68
2023/09/07 06:30:02;;;;;;;921.67;822.50;;;18.00;77.70;;;;;;5018575;28;20041;-67
2023/09/07 06:32:28;;;;;;;869.78;779.20;;;18.20;77.50;;;;;;5032740;28;20116;-67
2023/09/07 06:34:54;;;;;;;908.25;810.50;;;18.30;77.50;;;;;;5028499;28;20045;-66
2023/09/07 06:37:19;;;;;;;945.13;829.80;;;18.50;77.30;;;;;;5017223;28;20771;-67
2023/09/07 06:39:45;;;;;;;937.63;834.20;;;18.70;77.10;;;;;;5029658;28;20558;-67
2023/09/07 06:42:11;;;;;;;1057.15;871.38;;;18.80;77.00;;;;;;5018907;28;20365;-68
2023/09/07 06:44:36;;;;;;;1033.43;862.72;;;18.90;76.70;;;;;;5029213;28;20052;-68
2023/09/07 06:47:02;;;;;;;949.58;844.75;;;19.00;76.50;;;;;;5024409;28;20341;-68
2023/09/07 06:49:29;;;;;;;879.50;785.45;;;19.10;76.40;;;;;;5027811;28;20085;-66
2023/09/07 06:51:56;;;;;;;1012.03;849.25;;;19.10;76.20;;;;;;5033962;28;20041;-68
2023/09/07 06:54:22;;;;;;;973.38;843.97;;;19.30;76.20;;;;;;5030870;28;20059;-68
2023/09/07 06:56:48;;;;;;;901.90;798.90;;;19.40;76.00;;;;;;5021557;28;20075;-67
2023/09/07 06:59:14;;;;;;;949.72;844.58;;;19.50;76.00;;;;;;5031832;28;20044;-66
2023/09/07 07:01:40;;;;;;;991.90;837.88;;;19.50;76.00;;;;;;5036355;28;20366;-67
2023/09/07 07:04:06;;;;;;;914.08;814.00;;;19.60;76.00;;;;;;5030674;28;20057;-69
2023/09/07 07:06:32;;;;;;;977.35;845.45;;;19.70;75.70;;;;;;5025801;28;20704;-67
2023/09/07 07:08:58;;;;;;;965.72;844.22;;;19.80;75.60;;;;;;5034272;28;20143;-68
2023/09/07 07:11:23;;;;;;;1089.30;875.58;;;19.90;75.50;;;;;;5031184;28;20880;-68
2023/09/07 07:13:49;;;;;;;1023.80;849.55;;;20.00;75.50;;;;;;5030993;28;20045;-68
2023/09/07 07:16:16;;;;;;;1041.82;850.13;;;20.00;75.50;;;;;;5021389;28;20533;-67
2023/09/07 07:18:42;;;;;;;1022.92;859.40;;;20.10;75.40;;;;;;5016312;28;20198;-68
2023/09/07 07:21:08;;;;;;;1128.28;902.92;;;20.20;75.10;;;;;;5016372;28;20061;-68
2023/09/07 07:23:35;;;;;;;1057.53;879.67;;;20.30;75.00;;;;;;5017667;28;20051;-68
2023/09/07 07:26:00;;;;;;;1040.60;875.22;;;20.30;74.80;;;;;;5016671;28;20037;-66
2023/09/07 07:28:26;;;;;;;1074.28;883.88;;;20.50;74.70;;;;;;5012509;28;20518;-67
2023/09/07 07:30:53;;;;;;;1117.20;906.72;;;20.50;74.60;;;;;;5020644;28;21290;-66
2023/09/07 07:33:19;;;;;;;1100.28;897.03;;;20.60;74.30;;;;;;5026637;28;20055;-65
2023/09/07 07:35:45;;;;;;;1045.88;876.35;;;20.70;74.00;;;;;;5021162;28;20407;-66
2023/09/07 07:38:14;;;;;;;964.72;851.08;;;20.70;74.10;;;;;;4992828;28;20142;-68
2023/09/07 07:40:41;;;;;;;977.22;872.47;;;20.80;73.90;;;;;;4993965;28;20900;-68
2023/09/07 07:43:07;;;;;;;1030.47;895.78;;;20.90;73.80;;;;;;5024129;28;20065;-67
2023/09/07 07:45:36;;;;;;;982.45;871.22;;;20.90;73.60;;;;;;5026243;28;20087;-67
2023/09/07 07:48:05;;;;;;;992.95;881.75;;;21.00;72.90;;;;;;5005344;28;20140;-68
2023/09/07 07:50:31;;;;;;;1063.78;908.03;;;21.00;72.80;;;;;;4991773;28;20435;-65
2023/09/07 07:52:57;;;;;;;966.47;862.10;;;21.10;72.20;;;;;;5022613;28;20496;-67
2023/09/07 07:55:22;;;;;;;1072.80;925.10;;;21.10;71.50;;;;;;5012334;28;20037;-69
2023/09/07 07:57:48;;;;;;;1016.53;903.97;;;21.30;70.90;;;;;;5010097;28;20479;-66
2023/09/07 08:00:14;;;;;;;1071.78;918.45;;;21.40;70.90;;;;;;5022288;28;20056;-68
2023/09/07 08:02:40;;;;;;;1028.38;889.90;;;21.40;70.70;;;;;;5026793;28;20140;-67
2023/09/07 08:05:06;;;;;;;1060.60;916.85;;;21.50;70.50;;;;;;5023809;28;21820;-65
2023/09/07 08:07:32;;;;;;;1180.22;960.42;;;21.60;69.80;;;;;;5012869;28;20046;-64
2023/09/07 08:09:58;;;;;;;1064.60;900.15;;;21.70;69.50;;;;;;5026704;28;20125;-64
2023/09/07 08:12:23;;;;;;;972.35;865.83;;;21.70;69.60;;;;;;5022722;28;20056;-65
2023/09/07 08:14:49;;;;;;;1142.88;941.45;;;21.70;69.50;;;;;;5026532;28;20063;-67
2023/09/07 08:17:15;;;;;;;1014.28;900.42;;;21.90;69.30;;;;;;5005179;28;20049;-65
2023/09/07 08:19:41;;;;;;;1127.72;928.72;;;21.90;69.00;;;;;;5022391;28;20486;-68
2023/09/07 08:22:08;;;;;;;1034.38;880.55;;;21.90;69.30;;;;;;5005601;28;21055;-66
2023/09/07 08:24:34;;;;;;;1256.80;952.03;;;22.00;68.60;;;;;;5027207;28;20056;-67
2023/09/07 08:27:00;;;;;;;1169.25;919.78;;;22.00;68.30;;;;;;5011538;28;20037;-68
2023/09/07 08:29:26;;;;;;;1272.25;945.72;;;22.10;68.10;;;;;;5010331;28;20053;-66
2023/09/07 08:31:55;;;;;;;877.60;793.20;;;22.10;68.20;;;;;;5023928;28;20566;-65
2023/09/07 08:34:23;;;;;;;1002.03;895.00;;;22.10;68.10;;;;;;5015420;28;20480;-68
2023/09/07 08:36:49;;;;;;;1150.72;940.22;;;22.20;68.20;;;;;;4984300;28;20088;-68
2023/09/07 08:39:16;;;;;;;1163.15;915.40;;;22.20;68.20;;;;;;5022913;28;20266;-68
2023/09/07 08:41:44;;;;;;;1101.68;919.80;;;22.30;68.20;;;;;;5022393;28;20076;-64
2023/09/07 08:44:21;;;;;;;1189.90;919.65;;;22.40;68.10;;;;;;5018309;28;20106;-66
2023/09/07 08:46:49;;;;;;;1131.07;926.40;;;22.50;66.50;;;;;;5013423;28;20049;-68
2023/09/07 08:49:19;;;;;;;1133.10;909.58;;;22.50;67.60;;;;;;5020094;28;20075;-68
2023/09/07 08:51:45;;;;;;;1128.78;899.63;;;22.60;67.20;;;;;;5000191;28;20540;-66
2023/09/07 08:54:12;;;;;;;1272.68;933.63;;;22.60;66.90;;;;;;5023479;28;20065;-66
2023/09/07 08:56:38;;;;;;;1295.63;959.13;;;22.70;66.60;;;;;;4986046;28;20056;-66
2023/09/07 08:59:04;;;;;;;901.35;809.13;;;22.70;67.00;;;;;;5021745;28;20045;-68
2023/09/07 09:01:33;;;;;;;1244.75;940.80;;;22.80;66.70;;;;;;5022281;28;20522;-65
2023/09/07 09:03:59;;;;;;;1364.03;956.47;;;22.90;66.80;;;;;;5023320;28;20044;-67
2023/09/07 09:06:25;;;;;;;998.35;870.92;;;23.00;66.70;;;;;;5011046;28;20752;-65
2023/09/07 09:08:56;;;;;;;1099.93;924.22;;;23.00;67.00;;;;;;5023192;28;20045;-67
2023/09/07 09:11:23;;;;;;;978.40;868.35;;;23.10;67.00;;;;;;5011044;28;20055;-68
2023/09/07 09:13:52;;;;;;;1194.05;920.42;;;23.20;67.10;;;;;;5023732;28;20288;-64
2023/09/07 09:16:18;;;;;;;1351.93;969.95;;;23.30;66.90;;;;;;5008895;28;20415;-67
2023/09/07 09:18:52;;;;;;;1115.03;884.38;;;23.40;67.00;;;;;;5001892;28;20146;-67
2023/09/07 09:21:22;;;;;;;1250.78;946.45;;;23.50;66.50;;;;;;5021329;28;20047;-68
2023/09/07 09:23:57;;;;;;;1242.80;941.72;;;23.60;66.90;;;;;;5026338;28;20047;-69
2023/09/07 09:26:23;;;;;;;1304.75;965.60;;;23.60;66.60;;;;;;5009951;28;20632;-64
2023/09/07 09:28:52;;;;;;;1270.30;943.08;;;23.60;66.70;;;;;;5024154;28;20107;-69
2023/09/07 09:31:18;;;;;;;1205.10;927.38;;;23.80;66.20;;;;;;5017511;28;20080;-68
2023/09/07 09:33:49;;;;;;;1379.30;972.53;;;23.80;66.00;;;;;;5017732;28;20215;-68
2023/09/07 09:36:15;;;;;;;1206.07;944.40;;;23.90;64.30;;;;;;5003821;28;20041;-68
2023/09/07 09:38:49;;;;;;;1141.72;939.72;;;24.00;64.50;;;;;;5021326;28;20106;-65
2023/09/07 09:41:19;;;;;;;1147.28;944.50;;;24.00;64.30;;;;;;5020660;28;20041;-67
2023/09/07 09:43:51;;;;;;;1214.57;953.07;;;24.10;64.20;;;;;;5020192;28;20040;-67
2023/09/07 09:46:17;;;;;;;1139.25;942.05;;;24.20;63.60;;;;;;5008526;28;20057;-64
2023/09/07 09:48:44;;;;;;;1382.38;994.28;;;24.20;63.60;;;;;;5012902;28;20045;-65
2023/09/07 09:51:11;;;;;;;1367.75;983.95;;;24.40;63.00;;;;;;5019153;28;20049;-65
2023/09/07 09:53:37;;;;;;;1383.00;970.55;;;24.40;62.60;;;;;;5015589;28;20197;-64
2023/09/07 09:56:03;;;;;;;1257.50;954.75;;;24.40;62.50;;;;;;5014477;28;20692;-63
2023/09/07 09:58:29;;;;;;;1240.07;952.45;;;24.50;62.20;;;;;;4997597;28;20090;-66
2023/09/07 10:00:58;;;;;;;1061.53;938.28;;;24.50;62.10;;;;;;5019005;28;20107;-69
2023/09/07 10:03:26;;;;;;;1341.25;984.35;;;24.60;62.40;;;;;;5017921;28;20061;-67
2023/09/07 10:05:53;;;;;;;1095.43;911.88;;;24.60;62.50;;;;;;5021287;28;20210;-66
2023/09/07 10:08:19;;;;;;;1328.20;976.05;;;24.70;62.00;;;;;;5008584;28;20045;-66
2023/09/07 10:10:53;;;;;;;1302.13;971.92;;;24.80;62.00;;;;;;5016590;28;20077;-66
2023/09/07 10:13:35;;;;;;;1326.00;981.38;;;24.80;62.10;;;;;;5023410;28;20042;-69
2023/09/07 10:16:09;;;;;;;1264.45;958.10;;;24.90;61.80;;;;;;4997122;28;20428;-68
2023/09/07 10:18:37;;;;;;;1384.78;995.30;;;25.00;62.10;;;;;;5022747;28;20123;-67
2023/09/07 10:21:04;;;;;;;1303.85;991.17;;;25.00;62.20;;;;;;5020603;28;20049;-69
2023/09/07 10:23:39;;;;;;;1246.55;962.90;;;25.00;62.30;;;;;;5013585;28;20564;-69
2023/09/07 10:26:11;;;;;;;1262.72;962.38;;;25.10;61.90;;;;;;5008379;28;20107;-68
2023/09/07 10:28:36;;;;;;;1145.55;913.65;;;25.20;62.10;;;;;;5012189;28;20088;-67
2023/09/07 10:31:13;;;;;;;967.72;859.85;;;25.20;62.50;;;;;;5020120;28;20041;-68
2023/09/07 10:33:39;;;;;;;1252.10;960.05;;;25.30;62.20;;;;;;4998457;28;20398;-67
2023/09/07 10:36:05;;;;;;;1196.65;945.38;;;25.30;61.90;;;;;;5008614;28;20063;-66
2023/09/07 10:38:35;;;;;;;1228.55;947.40;;;25.30;61.30;;;;;;5000111;28;20124;-68
2023/09/07 10:41:04;;;;;;;1069.47;925.92;;;25.40;60.90;;;;;;5021680;28;20152;-67
2023/09/07 10:43:31;;;;;;;1147.85;933.42;;;25.50;61.30;;;;;;5014306;28;20696;-69
2023/09/07 10:45:58;;;;;;;1242.03;952.78;;;25.50;60.70;;;;;;5020588;28;20385;-66
2023/09/07 10:48:25;;;;;;;1220.60;939.00;;;25.50;60.90;;;;;;5008743;28;21455;-69
2023/09/07 10:50:51;;;;;;;1016.97;884.05;;;25.60;61.00;;;;;;5014284;28;20132;-70
2023/09/07 10:53:27;;;;;;;1119.82;923.88;;;25.60;60.80;;;;;;5018736;28;20064;-65
2023/09/07 10:55:53;;;;;;;972.50;868.22;;;25.60;61.20;;;;;;5018188;28;21323;-65
2023/09/07 10:58:27;;;;;;;1019.85;900.58;;;25.70;60.70;;;;;;5008472;28;20065;-67
2023/09/07 11:00:54;;;;;;;1015.15;900.45;;;25.80;60.00;;;;;;4998046;28;20049;-66
2023/09/07 11:03:20;;;;;;;997.08;887.00;;;25.80;60.70;;;;;;5025449;28;20099;-66
2023/09/07 11:05:47;;;;;;;1010.03;899.17;;;25.80;60.50;;;;;;5005191;28;20053;-67
2023/09/07 11:08:12;;;;;;;1078.15;906.97;;;25.80;60.20;;;;;;5007917;28;20540;-68
2023/09/07 11:10:38;;;;;;;991.60;882.70;;;25.80;60.10;;;;;;4999302;28;20110;-64
2023/09/07 11:13:05;;;;;;;1099.70;938.45;;;25.90;60.10;;;;;;5019487;28;20491;-67
2023/09/07 11:15:33;;;;;;;1011.40;898.72;;;26.00;59.70;;;;;;5014109;28;20160;-65
2023/09/07 11:18:08;;;;;;;997.80;892.78;;;26.00;60.00;;;;;;5010959;28;20570;-66
2023/09/07 11:20:40;;;;;;;1007.13;878.35;;;26.00;59.70;;;;;;5022416;28;20059;-65
2023/09/07 11:23:07;;;;;;;1074.15;932.67;;;26.00;60.10;;;;;;5019874;28;20119;-69
2023/09/07 11:25:39;;;;;;;987.97;882.08;;;26.00;59.70;;;;;;5004178;28;20049;-68
2023/09/07 11:28:07;;;;;;;1008.63;884.92;;;26.10;59.80;;;;;;5008761;28;20223;-67
2023/09/07 11:30:33;;;;;;;1029.35;902.03;;;26.20;59.70;;;;;;5022458;28;20058;-69
2023/09/07 11:33:07;;;;;;;1044.70;904.35;;;26.40;59.70;;;;;;5023878;28;20541;-65
2023/09/07 11:35:34;;;;;;;1033.93;908.17;;;26.50;58.90;;;;;;5026047;28;20056;-68
2023/09/07 11:38:01;;;;;;;1211.15;938.67;;;26.60;58.50;;;;;;4985679;28;20152;-66
2023/09/07 11:40:27;;;;;;;1174.88;928.88;;;26.60;57.70;;;;;;5023728;28;20052;-64
2023/09/07 11:42:52;;;;;;;1169.07;934.05;;;26.60;57.10;;;;;;5023851;28;20041;-68
2023/09/07 11:45:19;;;;;;;1320.03;953.40;;;26.60;56.70;;;;;;5024786;28;20128;-69
2023/09/07 11:47:45;;;;;;;1344.28;969.47;;;26.60;57.00;;;;;;5013761;28;20103;-68
2023/09/07 11:50:11;;;;;;;1035.72;887.17;;;26.60;56.80;;;;;;5021286;28;20413;-68
2023/09/07 11:52:36;;;;;;;1232.20;930.72;;;26.60;56.80;;;;;;5021083;28;20077;-68
2023/09/07 11:55:03;;;;;;;1189.65;898.55;;;26.60;56.60;;;;;;5023188;28;20053;-64
2023/09/07 11:57:29;;;;;;;1152.85;902.78;;;26.70;56.50;;;;;;5009677;28;20392;-69
2023/09/07 11:59:55;;;;;;;967.28;865.42;;;26.70;56.50;;;;;;5000117;28;20079;-66
2023/09/07 12:02:21;;;;;;;1002.42;892.78;;;26.70;57.40;;;;;;5020428;28;20253;-68